createdAt,value
2018-08-16T00:00:19.299Z,13.30
2018-08-16T00:01:22.871Z,13.60
2018-08-16T00:02:26.481Z,14.38
2018-08-16T00:03:30.080Z,14.13
2018-08-16T00:04:34.378Z,14.43
2018-08-16T00:05:38.084Z,14.78
2018-08-16T00:06:41.620Z,14.85
2018-08-16T00:07:45.450Z,15.13
2018-08-16T00:08:48.963Z,14.65
2018-08-16T00:09:52.526Z,14.93
2018-08-16T00:10:56.042Z,15.13
2018-08-16T00:11:59.644Z,14.83
2018-08-16T00:13:03.273Z,14.70
2018-08-16T00:14:06.836Z,15.08
2018-08-16T00:15:11.043Z,15.58
2018-08-16T00:16:14.583Z,15.03
2018-08-16T00:17:18.075Z,16.02
2018-08-16T00:18:22.082Z,15.60
2018-08-16T00:19:25.637Z,15.05
2018-08-16T00:20:29.228Z,15.68
2018-08-16T00:21:33.053Z,15.70
2018-08-16T00:22:36.883Z,16.30
2018-08-16T00:23:40.429Z,15.50
2018-08-16T00:24:43.918Z,14.90
2018-08-16T00:25:48.057Z,16.30
2018-08-16T00:26:51.644Z,14.23
2018-08-16T00:27:55.208Z,16.42
2018-08-16T00:28:58.830Z,14.98
2018-08-16T00:30:02.525Z,15.60
2018-08-16T00:31:06.193Z,14.60
2018-08-16T00:32:09.767Z,15.63
2018-08-16T00:33:13.291Z,15.30
2018-08-16T00:34:16.862Z,15.63
2018-08-16T00:35:20.406Z,16.73
2018-08-16T00:36:24.014Z,16.07
2018-08-16T00:37:27.564Z,16.45
2018-08-16T00:38:31.158Z,17.55
2018-08-16T00:39:34.730Z,15.80
2018-08-16T00:40:38.212Z,15.90
2018-08-16T00:41:41.791Z,17.95
2018-08-16T00:42:45.359Z,17.50
2018-08-16T00:43:48.864Z,17.70
2018-08-16T00:44:52.987Z,17.05
2018-08-16T00:45:56.556Z,18.90
2018-08-16T00:47:00.137Z,17.07
2018-08-16T00:48:03.937Z,17.40
2018-08-16T00:49:08.053Z,17.05
2018-08-16T00:50:13.470Z,16.23
2018-08-16T00:51:16.979Z,17.32
2018-08-16T00:52:20.474Z,16.17
2018-08-16T00:53:24.283Z,16.62
2018-08-16T00:54:27.816Z,17.77
2018-08-16T00:55:31.344Z,15.75
2018-08-16T00:56:35.198Z,17.37
2018-08-16T00:57:39.141Z,17.65
2018-08-16T00:58:42.878Z,16.48
2018-08-16T00:59:46.344Z,19.07
2018-08-16T01:00:50.094Z,18.40
2018-08-16T01:01:53.698Z,17.73
2018-08-16T01:02:57.494Z,17.12
2018-08-16T01:04:01.023Z,18.07
2018-08-16T01:05:04.988Z,18.07
2018-08-16T01:06:08.783Z,18.23
2018-08-16T01:07:12.443Z,18.87
2018-08-16T01:08:16.094Z,18.62
2018-08-16T01:09:19.629Z,18.92
2018-08-16T01:10:23.358Z,18.52
2018-08-16T01:11:27.570Z,19.55
2018-08-16T01:12:31.160Z,18.55
2018-08-16T01:13:34.882Z,18.65
2018-08-16T01:14:38.557Z,19.25
2018-08-16T01:15:42.251Z,19.20
2018-08-16T01:16:45.993Z,19.90
2018-08-16T01:17:49.534Z,19.05
2018-08-16T01:18:54.017Z,19.55
2018-08-16T01:19:57.653Z,21.00
2018-08-16T01:21:01.879Z,18.65
2018-08-16T01:22:05.570Z,19.73
2018-08-16T01:23:09.813Z,18.95
2018-08-16T01:24:13.406Z,17.98
2018-08-16T01:25:16.972Z,18.20
2018-08-16T01:26:20.601Z,19.35
2018-08-16T01:27:24.141Z,20.52
2018-08-16T01:28:27.875Z,19.37
2018-08-16T01:29:31.403Z,18.40
2018-08-16T01:30:35.050Z,19.73
2018-08-16T01:31:39.217Z,18.48
2018-08-16T01:32:42.807Z,20.50
2018-08-16T01:33:46.365Z,18.70
2018-08-16T01:34:50.018Z,19.73
2018-08-16T01:35:53.537Z,18.25
2018-08-16T01:36:57.248Z,17.77
2018-08-16T01:38:00.753Z,17.37
2018-08-16T01:39:05.145Z,17.82
2018-08-16T01:40:09.273Z,18.48
2018-08-16T01:41:12.946Z,18.92
2018-08-16T01:42:16.465Z,19.55
2018-08-16T01:43:20.337Z,18.82
2018-08-16T01:44:23.919Z,18.67
2018-08-16T01:45:27.459Z,19.92
2018-08-16T01:46:31.269Z,20.97
2018-08-16T01:47:35.207Z,19.85
2018-08-16T01:48:38.722Z,21.00
2018-08-16T01:49:42.418Z,20.65
2018-08-16T01:50:45.985Z,21.30
2018-08-16T01:51:49.610Z,21.95
2018-08-16T01:52:53.194Z,21.07
2018-08-16T01:53:56.762Z,21.52
2018-08-16T01:55:00.277Z,21.95
2018-08-16T01:56:03.923Z,23.10
2018-08-16T01:57:07.445Z,20.55
2018-08-16T01:58:10.995Z,21.02
2018-08-16T01:59:14.580Z,21.45
2018-08-16T02:00:19.055Z,22.48
2018-08-16T02:01:22.523Z,22.27
2018-08-16T02:02:26.125Z,21.65
2018-08-16T02:03:29.653Z,20.43
2018-08-16T02:04:33.299Z,21.95
2018-08-16T02:05:37.124Z,21.73
2018-08-16T02:06:40.765Z,21.15
2018-08-16T02:07:45.105Z,21.80
2018-08-16T02:08:49.335Z,21.35
2018-08-16T02:09:52.845Z,20.88
2018-08-16T02:10:56.715Z,21.55
2018-08-16T02:12:00.351Z,21.85
2018-08-16T02:13:04.008Z,20.57
2018-08-16T02:14:08.113Z,21.40
2018-08-16T02:15:13.150Z,21.75
2018-08-16T02:16:16.639Z,22.22
2018-08-16T02:17:20.235Z,22.95
2018-08-16T02:18:23.769Z,21.35
2018-08-16T02:19:27.291Z,22.25
2018-08-16T02:20:31.486Z,19.95
2018-08-16T02:21:35.537Z,21.62
2018-08-16T02:22:39.262Z,21.87
2018-08-16T02:23:43.196Z,20.75
2018-08-16T02:24:46.961Z,21.77
2018-08-16T02:25:50.649Z,22.25
2018-08-16T02:26:54.254Z,20.77
2018-08-16T02:27:57.777Z,22.25
2018-08-16T02:29:01.500Z,20.05
2018-08-16T02:30:06.625Z,21.25
2018-08-16T02:31:10.218Z,19.98
2018-08-16T02:32:14.424Z,20.45
2018-08-16T02:33:17.944Z,19.85
2018-08-16T02:34:21.724Z,20.55
2018-08-16T02:35:25.324Z,20.37
2018-08-16T02:36:28.905Z,20.30
2018-08-16T02:37:32.912Z,19.85
2018-08-16T02:38:36.416Z,20.68
2018-08-16T02:39:40.560Z,20.17
2018-08-16T02:40:44.164Z,20.62
2018-08-16T02:41:47.883Z,19.67
2018-08-16T02:42:52.191Z,20.40
2018-08-16T02:43:55.778Z,20.70
2018-08-16T02:44:59.400Z,20.50
2018-08-16T02:46:02.927Z,20.40
2018-08-16T02:47:06.468Z,20.02
2018-08-16T02:48:10.163Z,20.70
2018-08-16T02:49:13.957Z,21.37
2018-08-16T02:50:17.616Z,19.90
2018-08-16T02:51:21.841Z,19.27
2018-08-16T02:52:25.556Z,21.02
2018-08-16T02:53:29.640Z,20.32
2018-08-16T02:54:34.006Z,19.90
2018-08-16T02:55:37.634Z,20.92
2018-08-16T02:56:41.196Z,20.80
2018-08-16T02:57:44.812Z,21.00
2018-08-16T02:58:48.925Z,21.37
2018-08-16T02:59:52.490Z,21.33
2018-08-16T03:00:55.990Z,20.60
2018-08-16T03:01:59.563Z,21.62
2018-08-16T03:03:03.204Z,21.10
2018-08-16T03:04:06.756Z,20.20
2018-08-16T03:05:10.539Z,20.97
2018-08-16T03:06:14.203Z,20.77
2018-08-16T03:07:17.721Z,20.77
2018-08-16T03:08:23.035Z,20.80
2018-08-16T03:09:26.630Z,20.97
2018-08-16T03:10:30.306Z,20.57
2018-08-16T03:11:34.493Z,21.55
2018-08-16T03:12:38.381Z,21.35
2018-08-16T03:13:42.074Z,22.37
2018-08-16T03:14:45.618Z,21.55
2018-08-16T03:15:49.168Z,22.00
2018-08-16T03:16:52.698Z,23.05
2018-08-16T03:17:56.983Z,22.02
2018-08-16T03:19:00.543Z,22.52
2018-08-16T03:20:04.555Z,23.12
2018-08-16T03:21:08.130Z,22.22
2018-08-16T03:22:11.804Z,22.98
2018-08-16T03:23:15.418Z,22.27
2018-08-16T03:24:19.104Z,23.22
2018-08-16T03:25:22.994Z,21.48
2018-08-16T03:26:26.669Z,22.82
2018-08-16T03:27:30.286Z,22.98
2018-08-16T03:28:34.896Z,23.75
2018-08-16T03:29:38.543Z,21.82
2018-08-16T03:30:42.827Z,22.15
2018-08-16T03:31:47.303Z,22.13
2018-08-16T03:32:50.808Z,21.40
2018-08-16T03:33:54.427Z,21.37
2018-08-16T03:34:57.949Z,22.30
2018-08-16T03:36:01.532Z,22.20
2018-08-16T03:37:05.177Z,21.62
2018-08-16T03:38:09.363Z,21.45
2018-08-16T03:39:12.968Z,22.55
2018-08-16T03:40:16.556Z,22.62
2018-08-16T03:41:20.030Z,22.00
2018-08-16T03:42:23.804Z,21.82
2018-08-16T03:43:27.343Z,21.68
2018-08-16T03:44:30.901Z,23.05
2018-08-16T03:45:34.473Z,24.67
2018-08-16T03:46:38.813Z,22.35
2018-08-16T03:47:42.308Z,22.95
2018-08-16T03:48:46.087Z,23.25
2018-08-16T03:49:49.672Z,23.62
2018-08-16T03:50:53.231Z,23.57
2018-08-16T03:51:56.879Z,23.15
2018-08-16T03:53:00.933Z,23.32
2018-08-16T03:54:04.630Z,23.92
2018-08-16T03:55:08.269Z,26.50
2018-08-16T03:56:12.125Z,22.42
2018-08-16T03:57:15.602Z,22.60
2018-08-16T03:58:19.596Z,22.90
2018-08-16T03:59:23.309Z,22.45
2018-08-16T04:00:26.858Z,24.95
2018-08-16T04:01:30.435Z,22.22
2018-08-16T04:02:33.933Z,21.60
2018-08-16T04:03:37.502Z,22.37
2018-08-16T04:04:41.147Z,21.97
2018-08-16T04:05:44.660Z,22.48
2018-08-16T04:06:48.222Z,20.75
2018-08-16T04:07:51.766Z,22.20
2018-08-16T04:08:55.433Z,21.20
2018-08-16T04:09:58.960Z,21.17
2018-08-16T04:11:02.578Z,22.45
2018-08-16T04:12:06.771Z,21.35
2018-08-16T04:13:10.439Z,22.80
2018-08-16T04:14:14.282Z,21.48
2018-08-16T04:15:17.788Z,21.60
2018-08-16T04:16:21.377Z,22.98
2018-08-16T04:17:35.193Z,21.50
2018-08-16T04:18:38.832Z,23.18
2018-08-16T04:19:42.656Z,22.00
2018-08-16T04:20:46.315Z,21.75
2018-08-16T04:21:49.881Z,21.35
2018-08-16T04:22:54.133Z,21.68
2018-08-16T04:23:57.631Z,22.73
2018-08-16T04:25:01.475Z,21.25
2018-08-16T04:26:04.958Z,22.48
2018-08-16T04:27:09.347Z,23.10
2018-08-16T04:28:12.893Z,21.93
2018-08-16T04:29:16.449Z,21.73
2018-08-16T04:30:19.969Z,21.40
2018-08-16T04:31:24.179Z,20.88
2018-08-16T04:32:27.932Z,21.07
2018-08-16T04:33:31.772Z,23.05
2018-08-16T04:34:35.381Z,21.60
2018-08-16T04:35:38.950Z,20.97
2018-08-16T04:36:42.466Z,22.50
2018-08-16T04:37:46.741Z,21.07
2018-08-16T04:38:50.341Z,21.40
2018-08-16T04:39:53.995Z,21.10
2018-08-16T04:40:57.777Z,22.13
2018-08-16T04:42:01.377Z,21.68
2018-08-16T04:43:05.002Z,23.02
2018-08-16T04:44:08.529Z,22.05
2018-08-16T04:45:13.465Z,22.77
2018-08-16T04:46:17.335Z,19.82
2018-08-16T04:47:20.829Z,20.90
2018-08-16T04:48:24.483Z,19.73
2018-08-16T04:49:28.130Z,19.23
2018-08-16T04:50:31.667Z,20.40
2018-08-16T04:51:35.967Z,19.52
2018-08-16T04:52:40.126Z,19.62
2018-08-16T04:53:43.628Z,17.55
2018-08-16T04:54:47.176Z,16.87
2018-08-16T04:55:52.279Z,16.67
2018-08-16T04:56:56.226Z,16.07
2018-08-16T04:57:59.815Z,14.58
2018-08-16T04:59:03.392Z,14.90
2018-08-16T05:00:09.621Z,17.17
2018-08-16T05:01:13.217Z,14.50
2018-08-16T05:02:16.841Z,12.95
2018-08-16T05:03:20.353Z,13.85
2018-08-16T05:04:24.183Z,12.73
2018-08-16T05:05:27.795Z,12.45
2018-08-16T05:06:31.428Z,13.13
2018-08-16T05:07:35.224Z,12.33
2018-08-16T05:08:38.774Z,11.57
2018-08-16T05:09:42.396Z,11.68
2018-08-16T05:10:46.837Z,11.60
2018-08-16T05:11:50.322Z,11.63
2018-08-16T05:12:54.549Z,11.28
2018-08-16T05:13:58.119Z,11.53
2018-08-16T05:15:01.689Z,11.15
2018-08-16T05:16:05.242Z,11.03
2018-08-16T05:17:09.007Z,10.70
2018-08-16T05:18:12.677Z,10.58
2018-08-16T05:19:16.384Z,11.93
2018-08-16T05:20:20.213Z,11.18
2018-08-16T05:21:23.709Z,11.10
2018-08-16T05:22:27.270Z,10.98
2018-08-16T05:23:30.924Z,11.60
2018-08-16T05:24:34.485Z,9.73
2018-08-16T05:25:38.176Z,10.98
2018-08-16T05:26:41.724Z,10.70
2018-08-16T05:27:45.291Z,11.28
2018-08-16T05:28:48.757Z,11.22
2018-08-16T05:29:53.069Z,10.85
2018-08-16T05:30:56.831Z,10.53
2018-08-16T05:32:01.229Z,10.72
2018-08-16T05:33:05.385Z,11.22
2018-08-16T05:34:09.032Z,10.43
2018-08-16T05:35:12.818Z,10.65
2018-08-16T05:36:16.373Z,11.55
2018-08-16T05:37:20.296Z,11.20
2018-08-16T05:38:23.831Z,10.53
2018-08-16T05:39:27.890Z,10.53
2018-08-16T05:40:31.645Z,11.03
2018-08-16T05:41:35.242Z,10.70
2018-08-16T05:42:39.579Z,10.45
2018-08-16T05:43:43.193Z,11.15
2018-08-16T05:44:46.943Z,11.20
2018-08-16T05:45:51.180Z,10.45
2018-08-16T05:46:54.675Z,10.85
2018-08-16T05:47:58.428Z,11.60
2018-08-16T05:49:02.219Z,10.98
2018-08-16T05:50:08.688Z,10.68
2018-08-16T05:51:13.165Z,11.80
2018-08-16T05:52:16.773Z,10.80
2018-08-16T05:53:20.292Z,11.10
2018-08-16T05:54:24.801Z,10.65
2018-08-16T05:55:28.581Z,11.35
2018-08-16T05:56:32.068Z,10.80
2018-08-16T05:57:35.773Z,10.70
2018-08-16T05:58:39.330Z,11.30
2018-08-16T05:59:43.641Z,10.72
2018-08-16T06:00:47.200Z,11.35
2018-08-16T06:01:51.327Z,11.10
2018-08-16T06:02:54.948Z,11.40
2018-08-16T06:03:58.813Z,10.20
2018-08-16T06:05:02.907Z,10.98
2018-08-16T06:06:07.054Z,11.97
2018-08-16T06:07:10.574Z,11.85
2018-08-16T06:08:14.612Z,10.85
2018-08-16T06:09:18.365Z,10.60
2018-08-16T06:10:22.405Z,11.08
2018-08-16T06:11:25.949Z,10.88
2018-08-16T06:12:29.535Z,11.57
2018-08-16T06:13:34.048Z,11.20
2018-08-16T06:14:37.676Z,12.30
2018-08-16T06:15:41.259Z,12.40
2018-08-16T06:16:44.813Z,11.50
2018-08-16T06:17:48.354Z,11.45
2018-08-16T06:18:52.445Z,10.68
2018-08-16T06:19:56.624Z,11.60
2018-08-16T06:21:00.161Z,10.90
2018-08-16T06:22:03.964Z,11.53
2018-08-16T06:23:07.483Z,11.40
2018-08-16T06:24:11.136Z,10.95
2018-08-16T06:25:14.852Z,11.05
2018-08-16T06:26:18.404Z,11.03
2018-08-16T06:27:21.888Z,12.10
2018-08-16T06:28:25.492Z,11.40
2018-08-16T06:29:29.890Z,11.15
2018-08-16T06:30:34.099Z,11.57
2018-08-16T06:31:37.845Z,11.83
2018-08-16T06:32:41.876Z,11.70
2018-08-16T06:33:45.707Z,11.30
2018-08-16T06:34:49.339Z,11.00
2018-08-16T06:35:52.892Z,10.48
2018-08-16T06:36:56.449Z,9.78
2018-08-16T06:38:00.984Z,9.80
2018-08-16T06:39:07.303Z,9.50
2018-08-16T06:40:15.140Z,9.55
2018-08-16T06:41:18.812Z,9.35
2018-08-16T06:42:23.390Z,8.33
2018-08-16T06:43:27.143Z,9.38
2018-08-16T06:44:30.876Z,8.58
2018-08-16T06:45:34.564Z,9.38
2018-08-16T06:46:38.098Z,8.75
2018-08-16T06:47:41.889Z,9.00
2018-08-16T06:48:45.543Z,8.98
2018-08-16T06:49:49.174Z,9.05
2018-08-16T06:50:52.818Z,8.53
2018-08-16T06:51:56.601Z,8.23
2018-08-16T06:53:00.107Z,8.80
2018-08-16T06:54:03.753Z,8.58
2018-08-16T06:55:08.404Z,8.33
2018-08-16T06:56:12.439Z,9.03
2018-08-16T06:57:16.365Z,8.95
2018-08-16T06:58:20.003Z,7.67
2018-08-16T06:59:23.697Z,8.30
2018-08-16T07:00:27.310Z,9.33
2018-08-16T07:01:31.288Z,7.85
2018-08-16T07:02:35.181Z,8.00
2018-08-16T07:03:38.818Z,8.40
2018-08-16T07:04:42.933Z,7.95
2018-08-16T07:05:46.582Z,7.90
2018-08-16T07:06:50.146Z,8.58
2018-08-16T07:07:53.748Z,7.95
2018-08-16T07:08:57.492Z,8.73
2018-08-16T07:10:00.997Z,8.35
2018-08-16T07:11:04.645Z,8.23
2018-08-16T07:12:09.096Z,7.50
2018-08-16T07:13:13.306Z,7.45
2018-08-16T07:14:16.830Z,8.45
2018-08-16T07:15:20.400Z,7.80
2018-08-16T07:16:24.051Z,7.80
2018-08-16T07:17:27.653Z,8.33
2018-08-16T07:18:31.378Z,8.58
2018-08-16T07:19:34.951Z,7.67
2018-08-16T07:20:38.449Z,8.68
2018-08-16T07:21:42.208Z,8.30
2018-08-16T07:22:45.825Z,8.18
2018-08-16T07:23:49.603Z,8.30
2018-08-16T07:24:53.154Z,7.97
2018-08-16T07:25:57.083Z,7.70
2018-08-16T07:27:00.998Z,7.90
2018-08-16T07:28:04.518Z,7.37
2018-08-16T07:29:08.963Z,8.00
2018-08-16T07:30:12.581Z,8.13
2018-08-16T07:31:16.142Z,8.03
2018-08-16T07:32:19.672Z,8.20
2018-08-16T07:33:23.312Z,8.08
2018-08-16T07:34:28.108Z,8.25
2018-08-16T07:35:31.977Z,7.62
2018-08-16T07:36:35.561Z,7.65
2018-08-16T07:37:39.898Z,7.30
2018-08-16T07:38:43.724Z,6.78
2018-08-16T07:39:47.305Z,6.95
2018-08-16T07:40:51.029Z,7.25
2018-08-16T07:41:55.278Z,7.40
2018-08-16T07:42:58.825Z,7.30
2018-08-16T07:44:02.647Z,6.58
2018-08-16T07:45:08.317Z,6.55
2018-08-16T07:46:12.089Z,6.30
2018-08-16T07:47:15.600Z,5.92
2018-08-16T07:48:19.395Z,5.97
2018-08-16T07:49:23.100Z,6.40
2018-08-16T07:50:26.594Z,6.30
2018-08-16T07:51:31.077Z,6.12
2018-08-16T07:52:34.544Z,7.17
2018-08-16T07:53:38.187Z,6.12
2018-08-16T07:54:42.362Z,6.60
2018-08-16T07:55:46.091Z,6.87
2018-08-16T07:56:50.675Z,6.42
2018-08-16T07:57:55.275Z,6.25
2018-08-16T07:58:58.820Z,6.10
2018-08-16T08:00:03.626Z,7.17
2018-08-16T08:01:07.176Z,6.53
2018-08-16T08:02:11.143Z,6.08
2018-08-16T08:03:14.662Z,6.78
2018-08-16T08:04:18.192Z,5.97
2018-08-16T08:05:21.836Z,6.62
2018-08-16T08:06:25.534Z,6.33
2018-08-16T08:07:29.774Z,6.08
2018-08-16T08:08:33.967Z,6.15
2018-08-16T08:09:37.747Z,6.87
2018-08-16T08:10:41.231Z,5.92
2018-08-16T08:11:45.082Z,6.30
2018-08-16T08:12:48.633Z,6.17
2018-08-16T08:13:52.825Z,5.95
2018-08-16T08:14:56.659Z,6.55
2018-08-16T08:16:00.293Z,6.55
2018-08-16T08:17:04.130Z,6.10
2018-08-16T08:18:07.901Z,5.92
2018-08-16T08:19:11.553Z,6.37
2018-08-16T08:20:16.181Z,7.08
2018-08-16T08:21:19.917Z,6.70
2018-08-16T08:22:24.167Z,6.58
2018-08-16T08:23:28.281Z,6.62
2018-08-16T08:24:31.949Z,6.37
2018-08-16T08:25:35.728Z,5.97
2018-08-16T08:26:39.418Z,6.20
2018-08-16T08:27:43.041Z,5.90
2018-08-16T08:28:46.601Z,6.28
2018-08-16T08:29:50.345Z,7.37
2018-08-16T08:30:53.981Z,6.37
2018-08-16T08:31:57.449Z,6.35
2018-08-16T08:33:01.080Z,5.67
2018-08-16T08:34:04.684Z,6.08
2018-08-16T08:35:09.523Z,6.62
2018-08-16T08:36:25.359Z,6.03
2018-08-16T08:37:40.042Z,5.40
2018-08-16T08:38:43.593Z,7.03
2018-08-16T08:39:47.125Z,6.83
2018-08-16T08:40:50.899Z,6.45
2018-08-16T08:41:54.600Z,7.17
2018-08-16T08:42:58.251Z,7.15
2018-08-16T08:44:11.926Z,7.45
2018-08-16T08:45:16.068Z,6.30
2018-08-16T08:46:20.122Z,6.08
2018-08-16T08:47:27.876Z,6.85
2018-08-16T08:48:32.410Z,7.25
2018-08-16T08:49:35.951Z,6.97
2018-08-16T08:50:40.304Z,7.12
2018-08-16T08:51:43.917Z,6.72
2018-08-16T08:52:47.492Z,6.85
2018-08-16T08:54:10.033Z,7.03
2018-08-16T08:55:24.784Z,6.47
2018-08-16T08:56:40.787Z,6.80
2018-08-16T08:58:00.448Z,6.80
2018-08-16T08:59:04.302Z,7.22
2018-08-16T09:00:09.243Z,7.25
2018-08-16T09:01:13.131Z,7.20
2018-08-16T09:02:18.371Z,6.30
2018-08-16T09:03:21.915Z,6.62
2018-08-16T09:04:25.554Z,6.35
2018-08-16T09:05:30.001Z,6.25
2018-08-16T09:06:33.640Z,7.78
2018-08-16T09:07:37.240Z,7.10
2018-08-16T09:08:40.760Z,6.10
2018-08-16T09:10:54.945Z,7.00
2018-08-16T09:12:09.886Z,6.67
2018-08-16T09:13:25.515Z,6.00
2018-08-16T09:14:40.167Z,6.72
2018-08-16T09:15:48.649Z,6.95
2018-08-16T09:16:52.648Z,6.22
2018-08-16T09:17:56.377Z,5.85
2018-08-16T09:19:00.316Z,6.42
2018-08-16T09:20:04.049Z,6.10
2018-08-16T09:21:08.366Z,5.70
2018-08-16T09:22:12.221Z,6.10
2018-08-16T09:23:16.060Z,6.42
2018-08-16T09:24:19.803Z,6.83
2018-08-16T09:25:24.160Z,6.35
2018-08-16T09:26:33.132Z,7.00
2018-08-16T09:27:36.696Z,7.55
2018-08-16T09:28:40.947Z,6.42
2018-08-16T09:30:21.686Z,7.60
2018-08-16T09:31:36.640Z,8.00
2018-08-16T09:32:51.592Z,7.95
2018-08-16T09:34:06.328Z,6.85
2018-08-16T09:35:10.926Z,7.15
2018-08-16T09:36:15.501Z,6.92
2018-08-16T09:37:49.940Z,7.40
2018-08-16T09:38:54.323Z,7.45
2018-08-16T09:39:58.112Z,7.55
2018-08-16T09:41:02.272Z,6.90
2018-08-16T09:42:07.219Z,6.83
2018-08-16T09:43:10.914Z,6.75
2018-08-16T09:44:15.502Z,6.85
2018-08-16T09:45:30.536Z,7.45
2018-08-16T09:47:00.912Z,7.78
2018-08-16T09:48:16.391Z,6.87
2018-08-16T09:49:21.743Z,7.72
2018-08-16T09:50:26.132Z,7.40
2018-08-16T09:51:30.074Z,6.85
2018-08-16T09:52:34.045Z,7.28
2018-08-16T09:53:38.143Z,6.55
2018-08-16T09:54:41.794Z,6.92
2018-08-16T09:55:46.624Z,6.75
2018-08-16T09:56:51.631Z,7.58
2018-08-16T09:57:55.268Z,7.45
2018-08-16T09:59:07.325Z,7.85
2018-08-16T10:00:13.887Z,7.47
2018-08-16T10:01:17.973Z,7.10
2018-08-16T10:02:23.046Z,6.97
2018-08-16T10:03:26.719Z,7.22
2018-08-16T10:04:30.798Z,7.03
2018-08-16T10:05:34.379Z,6.92
2018-08-16T10:06:39.205Z,7.67
2018-08-16T10:07:42.724Z,7.15
2018-08-16T10:08:46.677Z,7.72
2018-08-16T10:09:50.461Z,7.60
2018-08-16T10:10:54.695Z,7.47
2018-08-16T10:12:00.599Z,6.92
2018-08-16T10:13:04.855Z,6.87
2018-08-16T10:14:09.807Z,7.08
2018-08-16T10:15:14.016Z,6.62
2018-08-16T10:16:18.444Z,6.28
2018-08-16T10:17:23.152Z,6.40
2018-08-16T10:18:26.838Z,6.85
2018-08-16T10:19:30.696Z,7.10
2018-08-16T10:20:34.470Z,7.30
2018-08-16T10:21:39.354Z,6.70
2018-08-16T10:22:43.762Z,7.25
2018-08-16T10:23:47.676Z,6.92
2018-08-16T10:24:52.367Z,6.90
2018-08-16T10:25:56.250Z,7.15
2018-08-16T10:26:59.890Z,6.45
2018-08-16T10:28:03.418Z,6.33
2018-08-16T10:29:07.869Z,7.50
2018-08-16T10:30:12.302Z,6.87
2018-08-16T10:31:18.486Z,6.65
2018-08-16T10:32:23.091Z,6.65
2018-08-16T10:33:28.334Z,6.87
2018-08-16T10:34:32.481Z,7.05
2018-08-16T10:35:37.687Z,7.45
2018-08-16T10:36:42.095Z,7.03
2018-08-16T10:37:45.769Z,6.87
2018-08-16T10:38:49.320Z,7.25
2018-08-16T10:39:52.817Z,7.50
2018-08-16T10:40:56.449Z,6.62
2018-08-16T10:42:00.743Z,7.17
2018-08-16T10:43:05.374Z,7.22
2018-08-16T10:44:09.895Z,7.08
2018-08-16T10:45:13.499Z,6.92
2018-08-16T10:46:17.182Z,6.75
2018-08-16T10:47:20.812Z,7.20
2018-08-16T10:48:24.847Z,6.45
2018-08-16T10:49:28.996Z,6.50
2018-08-16T10:50:32.621Z,6.50
2018-08-16T10:51:36.251Z,6.40
2018-08-16T10:52:39.929Z,6.58
2018-08-16T10:53:43.512Z,6.30
2018-08-16T10:54:47.206Z,6.65
2018-08-16T10:55:51.380Z,6.72
2018-08-16T10:56:55.086Z,7.47
2018-08-16T10:57:58.656Z,7.20
2018-08-16T10:59:02.698Z,7.05
2018-08-16T11:00:07.473Z,7.40
2018-08-16T11:01:11.017Z,6.53
2018-08-16T11:02:14.726Z,5.87
2018-08-16T11:03:18.280Z,6.78
2018-08-16T11:04:21.885Z,6.25
2018-08-16T11:05:26.030Z,6.20
2018-08-16T11:06:30.404Z,6.50
2018-08-16T11:07:35.292Z,6.70
2018-08-16T11:08:39.481Z,6.67
2018-08-16T11:09:43.027Z,6.50
2018-08-16T11:10:46.895Z,7.03
2018-08-16T11:11:51.160Z,6.62
2018-08-16T11:12:54.916Z,7.50
2018-08-16T11:13:59.360Z,6.92
2018-08-16T11:15:03.197Z,6.92
2018-08-16T11:16:06.755Z,6.90
2018-08-16T11:17:10.387Z,6.78
2018-08-16T11:18:13.960Z,6.87
2018-08-16T11:19:17.612Z,6.03
2018-08-16T11:20:21.289Z,6.87
2018-08-16T11:21:25.720Z,6.58
2018-08-16T11:22:29.461Z,5.87
2018-08-16T11:23:33.779Z,7.10
2018-08-16T11:24:38.141Z,7.08
2018-08-16T11:25:41.671Z,7.00
2018-08-16T11:26:45.209Z,6.92
2018-08-16T11:27:48.940Z,6.75
2018-08-16T11:28:52.932Z,6.60
2018-08-16T11:29:56.440Z,6.37
2018-08-16T11:31:00.230Z,6.58
2018-08-16T11:32:03.945Z,6.97
2018-08-16T11:33:08.564Z,6.40
2018-08-16T11:34:12.358Z,6.53
2018-08-16T11:35:16.135Z,6.03
2018-08-16T11:36:20.409Z,6.28
2018-08-16T11:37:24.477Z,6.45
2018-08-16T11:38:27.977Z,7.35
2018-08-16T11:39:31.541Z,7.40
2018-08-16T11:40:35.233Z,7.95
2018-08-16T11:41:39.207Z,7.42
2018-08-16T11:42:42.798Z,7.03
2018-08-16T11:43:46.574Z,7.17
2018-08-16T11:44:50.393Z,6.97
2018-08-16T11:45:54.397Z,6.80
2018-08-16T11:46:58.129Z,6.03
2018-08-16T11:48:01.420Z,6.65
2018-08-16T11:49:05.427Z,6.12
2018-08-16T11:50:10.680Z,6.25
2018-08-16T11:51:14.355Z,6.00
2018-08-16T11:52:18.199Z,6.37
2018-08-16T11:53:21.941Z,5.67
2018-08-16T11:54:25.445Z,5.67
2018-08-16T11:55:29.198Z,5.95
2018-08-16T11:56:33.373Z,6.37
2018-08-16T11:57:36.896Z,6.15
2018-08-16T11:58:40.478Z,6.10
2018-08-16T11:59:44.034Z,6.78
2018-08-16T12:00:47.682Z,6.37
2018-08-16T12:01:51.809Z,6.35
2018-08-16T12:02:55.366Z,6.17
2018-08-16T12:03:59.021Z,6.12
2018-08-16T12:05:02.538Z,6.40
2018-08-16T12:06:06.439Z,6.55
2018-08-16T12:07:09.936Z,6.28
2018-08-16T12:08:13.475Z,5.85
2018-08-16T12:09:18.054Z,6.37
2018-08-16T12:10:21.876Z,6.45
2018-08-16T12:11:25.699Z,5.83
2018-08-16T12:12:29.277Z,6.53
2018-08-16T12:13:32.844Z,6.60
2018-08-16T12:14:36.605Z,6.72
2018-08-16T12:15:40.164Z,6.15
2018-08-16T12:16:43.680Z,5.72
2018-08-16T12:17:47.316Z,7.12
2018-08-16T12:18:50.840Z,6.05
2018-08-16T12:19:54.368Z,6.37
2018-08-16T12:20:57.955Z,6.28
2018-08-16T12:22:01.675Z,6.92
2018-08-16T12:23:05.653Z,6.78
2018-08-16T12:24:09.178Z,6.17
2018-08-16T12:25:13.031Z,6.10
2018-08-16T12:26:16.591Z,6.47
2018-08-16T12:27:20.794Z,6.30
2018-08-16T12:28:24.424Z,6.90
2018-08-16T12:29:28.172Z,6.78
2018-08-16T12:30:32.291Z,6.97
2018-08-16T12:31:35.800Z,5.87
2018-08-16T12:32:39.470Z,6.12
2018-08-16T12:33:43.095Z,7.50
2018-08-16T12:34:46.711Z,6.10
2018-08-16T12:35:50.317Z,6.03
2018-08-16T12:36:54.300Z,6.25
2018-08-16T12:37:58.352Z,5.45
2018-08-16T12:39:01.852Z,5.78
2018-08-16T12:40:06.653Z,6.37
2018-08-16T12:41:11.120Z,5.92
2018-08-16T12:42:14.935Z,6.10
2018-08-16T12:43:18.456Z,6.03
2018-08-16T12:44:22.154Z,6.90
2018-08-16T12:45:25.697Z,6.50
2018-08-16T12:46:29.206Z,7.08
2018-08-16T12:47:33.721Z,6.55
2018-08-16T12:48:37.328Z,6.50
2018-08-16T12:49:41.140Z,7.30
2018-08-16T12:50:45.480Z,6.83
2018-08-16T12:51:49.102Z,7.22
2018-08-16T12:52:52.880Z,7.70
2018-08-16T12:53:56.517Z,6.47
2018-08-16T12:55:00.469Z,6.50
2018-08-16T12:56:04.132Z,7.10
2018-08-16T12:57:07.871Z,7.12
2018-08-16T12:58:11.563Z,6.25
2018-08-16T12:59:15.313Z,6.10
2018-08-16T13:00:19.031Z,6.37
2018-08-16T13:01:22.658Z,6.17
2018-08-16T13:02:26.262Z,7.00
2018-08-16T13:03:30.148Z,6.80
2018-08-16T13:04:33.696Z,6.42
2018-08-16T13:05:37.296Z,6.60
2018-08-16T13:06:41.048Z,6.90
2018-08-16T13:07:44.684Z,6.62
2018-08-16T13:08:48.976Z,7.60
2018-08-16T13:09:52.507Z,7.62
2018-08-16T13:10:56.222Z,6.40
2018-08-16T13:11:59.756Z,6.90
2018-08-16T13:13:03.582Z,6.55
2018-08-16T13:14:07.295Z,6.30
2018-08-16T13:15:11.445Z,6.25
2018-08-16T13:16:15.641Z,6.72
2018-08-16T13:17:19.265Z,6.20
2018-08-16T13:18:22.868Z,5.75
2018-08-16T13:19:27.239Z,6.17
2018-08-16T13:20:30.918Z,7.00
2018-08-16T13:21:34.538Z,6.45
2018-08-16T13:22:38.426Z,7.47
2018-08-16T13:23:42.188Z,7.60
2018-08-16T13:24:46.085Z,6.92
2018-08-16T13:25:49.602Z,7.80
2018-08-16T13:26:53.937Z,6.50
2018-08-16T13:27:57.564Z,6.87
2018-08-16T13:29:01.166Z,7.35
2018-08-16T13:30:05.837Z,7.25
2018-08-16T13:31:09.511Z,7.05
2018-08-16T13:32:13.039Z,6.42
2018-08-16T13:33:17.153Z,6.55
2018-08-16T13:34:21.574Z,6.35
2018-08-16T13:35:25.263Z,6.15
2018-08-16T13:36:28.817Z,5.67
2018-08-16T13:37:32.451Z,6.83
2018-08-16T13:38:37.252Z,7.10
2018-08-16T13:39:41.355Z,6.65
2018-08-16T13:40:44.991Z,7.10
2018-08-16T13:41:48.707Z,6.78
2018-08-16T13:42:52.496Z,6.15
2018-08-16T13:43:56.095Z,6.70
2018-08-16T13:45:00.153Z,6.60
2018-08-16T13:46:03.742Z,6.47
2018-08-16T13:47:08.097Z,6.80
2018-08-16T13:48:18.332Z,7.33
2018-08-16T13:49:21.968Z,7.47
2018-08-16T13:50:26.188Z,6.37
2018-08-16T13:51:30.627Z,6.78
2018-08-16T13:52:34.332Z,6.72
2018-08-16T13:53:38.510Z,6.35
2018-08-16T13:54:42.540Z,6.40
2018-08-16T13:55:47.453Z,6.00
2018-08-16T13:56:51.144Z,6.90
2018-08-16T13:57:54.718Z,6.75
2018-08-16T13:58:58.317Z,6.45
2018-08-16T14:00:02.117Z,6.83
2018-08-16T14:01:05.784Z,6.45
2018-08-16T14:02:09.921Z,6.35
2018-08-16T14:03:13.803Z,5.80